sensor_id;sensor_type;location;lat;lon;timestamp;temperature;humidity
24645;DHT22;12780;45.502;9.146;2023-03-23T00:02:15;15.40;99.90
24645;DHT22;12780;45.502;9.146;2023-03-23T00:04:41;15.50;99.90
24645;DHT22;12780;45.502;9.146;2023-03-23T00:07:08;15.40;99.90
24645;DHT22;12780;45.502;9.146;2023-03-23T00:09:33;15.30;99.90
24645;DHT22;12780;45.502;9.146;2023-03-23T00:12:00;15.40;99.90
24645;DHT22;12780;45.502;9.146;2023-03-23T00:14:32;15.30;99.90
24645;DHT22;12780;45.502;9.146;2023-03-23T00:17:07;15.30;99.90
24645;DHT22;12780;45.502;9.146;2023-03-23T00:19:35;15.30;99.90
24645;DHT22;12780;45.502;9.146;2023-03-23T00:22:14;15.30;99.90
24645;DHT22;12780;45.502;9.146;2023-03-23T00:24:41;15.30;99.90
24645;DHT22;12780;45.502;9.146;2023-03-23T00:27:06;15.20;99.90
24645;DHT22;12780;45.502;9.146;2023-03-23T00:29:34;15.20;99.90
24645;DHT22;12780;45.502;9.146;2023-03-23T00:32:00;15.20;99.90
24645;DHT22;12780;45.502;9.146;2023-03-23T00:34:25;15.10;99.90
24645;DHT22;12780;45.502;9.146;2023-03-23T00:36:57;15.10;99.90
24645;DHT22;12780;45.502;9.146;2023-03-23T00:39:25;15.10;99.90
24645;DHT22;12780;45.502;9.146;2023-03-23T00:41:52;15.00;99.90
24645;DHT22;12780;45.502;9.146;2023-03-23T00:44:18;15.00;99.90
24645;DHT22;12780;45.502;9.146;2023-03-23T00:46:45;15.00;99.90
24645;DHT22;12780;45.502;9.146;2023-03-23T00:49:12;15.00;99.90
24645;DHT22;12780;45.502;9.146;2023-03-23T00:51:39;14.90;99.90
24645;DHT22;12780;45.502;9.146;2023-03-23T00:54:05;14.90;99.90
24645;DHT22;12780;45.502;9.146;2023-03-23T00:56:31;15.10;99.90
24645;DHT22;12780;45.502;9.146;2023-03-23T00:58:56;14.90;99.90
24645;DHT22;12780;45.502;9.146;2023-03-23T01:01:22;14.90;99.90
24645;DHT22;12780;45.502;9.146;2023-03-23T01:03:47;14.90;99.90
24645;DHT22;12780;45.502;9.146;2023-03-23T01:06:14;14.80;99.90
24645;DHT22;12780;45.502;9.146;2023-03-23T01:08:40;14.70;99.90
24645;DHT22;12780;45.502;9.146;2023-03-23T01:11:14;14.50;99.90
24645;DHT22;12780;45.502;9.146;2023-03-23T01:13:44;14.70;99.90
24645;DHT22;12780;45.502;9.146;2023-03-23T01:16:11;14.60;99.90
24645;DHT22;12780;45.502;9.146;2023-03-23T01:18:37;14.60;99.90
24645;DHT22;12780;45.502;9.146;2023-03-23T01:21:07;14.50;99.90
24645;DHT22;12780;45.502;9.146;2023-03-23T01:23:34;14.50;99.90
24645;DHT22;12780;45.502;9.146;2023-03-23T01:26:27;14.50;99.90
24645;DHT22;12780;45.502;9.146;2023-03-23T01:28:53;14.40;99.90
24645;DHT22;12780;45.502;9.146;2023-03-23T01:31:21;14.40;99.90
24645;DHT22;12780;45.502;9.146;2023-03-23T01:33:48;14.40;99.90
24645;DHT22;12780;45.502;9.146;2023-03-23T01:36:18;14.30;99.90
24645;DHT22;12780;45.502;9.146;2023-03-23T01:38:46;14.30;99.90
24645;DHT22;12780;45.502;9.146;2023-03-23T01:41:12;14.30;99.90
24645;DHT22;12780;45.502;9.146;2023-03-23T01:43:57;14.30;99.90
24645;DHT22;12780;45.502;9.146;2023-03-23T01:46:28;14.20;99.90
24645;DHT22;12780;45.502;9.146;2023-03-23T01:48:55;14.20;99.90
24645;DHT22;12780;45.502;9.146;2023-03-23T01:51:23;14.20;99.90
24645;DHT22;12780;45.502;9.146;2023-03-23T01:53:58;14.20;99.90
24645;DHT22;12780;45.502;9.146;2023-03-23T01:56:32;14.10;99.90
24645;DHT22;12780;45.502;9.146;2023-03-23T01:59:03;14.10;99.90
24645;DHT22;12780;45.502;9.146;2023-03-23T02:01:29;14.10;99.90
24645;DHT22;12780;45.502;9.146;2023-03-23T02:03:56;14.10;99.90
24645;DHT22;12780;45.502;9.146;2023-03-23T02:06:23;14.10;99.90
24645;DHT22;12780;45.502;9.146;2023-03-23T02:08:50;14.20;99.90
24645;DHT22;12780;45.502;9.146;2023-03-23T02:11:20;14.20;99.90
24645;DHT22;12780;45.502;9.146;2023-03-23T02:13:47;14.10;99.90
24645;DHT22;12780;45.502;9.146;2023-03-23T02:19:18;14.10;99.90
24645;DHT22;12780;45.502;9.146;2023-03-23T02:22:07;14.10;99.90
24645;DHT22;12780;45.502;9.146;2023-03-23T02:33:36;14.10;99.90
24645;DHT22;12780;45.502;9.146;2023-03-23T02:36:19;14.10;99.90
24645;DHT22;12780;45.502;9.146;2023-03-23T02:38:55;14.10;99.90
24645;DHT22;12780;45.502;9.146;2023-03-23T02:41:26;14.10;99.90
24645;DHT22;12780;45.502;9.146;2023-03-23T02:43:53;14.00;99.90
24645;DHT22;12780;45.502;9.146;2023-03-23T02:46:21;14.00;99.90
24645;DHT22;12780;45.502;9.146;2023-03-23T02:48:49;14.10;99.90
24645;DHT22;12780;45.502;9.146;2023-03-23T02:51:19;14.10;99.90
24645;DHT22;12780;45.502;9.146;2023-03-23T02:53:46;14.10;99.90
24645;DHT22;12780;45.502;9.146;2023-03-23T02:56:13;14.10;99.90
24645;DHT22;12780;45.502;9.146;2023-03-23T02:58:40;14.10;99.90
24645;DHT22;12780;45.502;9.146;2023-03-23T03:03:52;14.10;99.90
24645;DHT22;12780;45.502;9.146;2023-03-23T03:12:09;14.10;99.90
24645;DHT22;12780;45.502;9.146;2023-03-23T03:14:44;14.10;99.90
24645;DHT22;12780;45.502;9.146;2023-03-23T03:17:21;14.20;99.90
24645;DHT22;12780;45.502;9.146;2023-03-23T03:19:50;14.10;99.90
24645;DHT22;12780;45.502;9.146;2023-03-23T03:22:18;14.10;99.90
24645;DHT22;12780;45.502;9.146;2023-03-23T03:24:47;14.10;99.90
24645;DHT22;12780;45.502;9.146;2023-03-23T03:27:16;14.10;99.90
24645;DHT22;12780;45.502;9.146;2023-03-23T03:29:45;14.10;99.90
24645;DHT22;12780;45.502;9.146;2023-03-23T03:32:18;14.10;99.90
24645;DHT22;12780;45.502;9.146;2023-03-23T03:34:45;14.10;99.90
24645;DHT22;12780;45.502;9.146;2023-03-23T03:37:12;14.10;99.90
24645;DHT22;12780;45.502;9.146;2023-03-23T03:39:38;14.10;99.90
24645;DHT22;12780;45.502;9.146;2023-03-23T03:42:05;14.10;99.90
24645;DHT22;12780;45.502;9.146;2023-03-23T03:44:32;14.10;99.90
24645;DHT22;12780;45.502;9.146;2023-03-23T03:46:57;14.10;99.90
24645;DHT22;12780;45.502;9.146;2023-03-23T03:49:23;14.10;99.90
24645;DHT22;12780;45.502;9.146;2023-03-23T03:51:49;14.10;99.90
24645;DHT22;12780;45.502;9.146;2023-03-23T03:54:14;14.10;99.90
24645;DHT22;12780;45.502;9.146;2023-03-23T03:56:41;14.10;99.90
24645;DHT22;12780;45.502;9.146;2023-03-23T03:59:08;14.10;99.90
24645;DHT22;12780;45.502;9.146;2023-03-23T04:01:35;14.10;99.90
24645;DHT22;12780;45.502;9.146;2023-03-23T04:04:00;14.10;99.90
24645;DHT22;12780;45.502;9.146;2023-03-23T04:06:26;14.00;99.90
24645;DHT22;12780;45.502;9.146;2023-03-23T04:08:54;14.10;99.90
24645;DHT22;12780;45.502;9.146;2023-03-23T04:11:20;14.10;99.90
24645;DHT22;12780;45.502;9.146;2023-03-23T04:13:46;14.10;99.90
24645;DHT22;12780;45.502;9.146;2023-03-23T04:16:11;14.10;99.90
24645;DHT22;12780;45.502;9.146;2023-03-23T04:18:37;14.10;99.90
24645;DHT22;12780;45.502;9.146;2023-03-23T04:21:04;14.20;99.90
24645;DHT22;12780;45.502;9.146;2023-03-23T04:23:33;14.20;99.90
24645;DHT22;12780;45.502;9.146;2023-03-23T04:26:00;14.20;99.90
24645;DHT22;12780;45.502;9.146;2023-03-23T04:28:26;14.20;99.90
24645;DHT22;12780;45.502;9.146;2023-03-23T04:30:53;14.20;99.90
24645;DHT22;12780;45.502;9.146;2023-03-23T04:33:21;14.30;99.90
24645;DHT22;12780;45.502;9.146;2023-03-23T04:35:47;14.30;99.90
24645;DHT22;12780;45.502;9.146;2023-03-23T04:38:16;14.30;99.90
24645;DHT22;12780;45.502;9.146;2023-03-23T04:40:46;14.40;99.90
24645;DHT22;12780;45.502;9.146;2023-03-23T04:43:12;14.30;99.90
24645;DHT22;12780;45.502;9.146;2023-03-23T04:45:38;14.30;99.90
24645;DHT22;12780;45.502;9.146;2023-03-23T04:48:07;14.40;99.90
24645;DHT22;12780;45.502;9.146;2023-03-23T04:50:32;14.30;99.90
24645;DHT22;12780;45.502;9.146;2023-03-23T04:52:59;14.40;99.90
24645;DHT22;12780;45.502;9.146;2023-03-23T04:55:29;14.40;99.90
24645;DHT22;12780;45.502;9.146;2023-03-23T04:57:55;14.40;99.90
24645;DHT22;12780;45.502;9.146;2023-03-23T05:00:21;14.50;99.90
24645;DHT22;12780;45.502;9.146;2023-03-23T05:02:47;14.50;99.90
24645;DHT22;12780;45.502;9.146;2023-03-23T05:05:17;14.50;99.90
24645;DHT22;12780;45.502;9.146;2023-03-23T05:07:43;14.50;99.90
24645;DHT22;12780;45.502;9.146;2023-03-23T05:10:10;14.50;99.90
24645;DHT22;12780;45.502;9.146;2023-03-23T05:12:36;14.50;99.90
24645;DHT22;12780;45.502;9.146;2023-03-23T05:15:02;14.50;99.90
24645;DHT22;12780;45.502;9.146;2023-03-23T05:17:28;14.50;99.90
24645;DHT22;12780;45.502;9.146;2023-03-23T05:19:55;14.40;99.90
24645;DHT22;12780;45.502;9.146;2023-03-23T05:22:22;14.40;99.90
24645;DHT22;12780;45.502;9.146;2023-03-23T05:24:48;14.40;99.90
24645;DHT22;12780;45.502;9.146;2023-03-23T05:27:16;14.40;99.90
24645;DHT22;12780;45.502;9.146;2023-03-23T05:29:44;14.40;99.90
24645;DHT22;12780;45.502;9.146;2023-03-23T05:32:11;14.40;99.90
24645;DHT22;12780;45.502;9.146;2023-03-23T05:34:37;14.40;99.90
24645;DHT22;12780;45.502;9.146;2023-03-23T05:37:03;14.40;99.90
24645;DHT22;12780;45.502;9.146;2023-03-23T05:39:30;14.40;99.90
24645;DHT22;12780;45.502;9.146;2023-03-23T05:41:56;14.40;99.90
24645;DHT22;12780;45.502;9.146;2023-03-23T05:44:22;14.40;99.90
24645;DHT22;12780;45.502;9.146;2023-03-23T05:46:48;14.40;99.90
24645;DHT22;12780;45.502;9.146;2023-03-23T05:49:14;14.40;99.90
24645;DHT22;12780;45.502;9.146;2023-03-23T05:51:42;14.40;99.90
24645;DHT22;12780;45.502;9.146;2023-03-23T05:54:08;14.40;99.90
24645;DHT22;12780;45.502;9.146;2023-03-23T05:56:34;14.40;99.90
24645;DHT22;12780;45.502;9.146;2023-03-23T05:59:00;14.50;99.90
24645;DHT22;12780;45.502;9.146;2023-03-23T06:01:26;14.40;99.90
24645;DHT22;12780;45.502;9.146;2023-03-23T06:03:52;14.60;99.90
24645;DHT22;12780;45.502;9.146;2023-03-23T06:06:20;14.50;99.90
24645;DHT22;12780;45.502;9.146;2023-03-23T06:08:46;14.50;99.90
24645;DHT22;12780;45.502;9.146;2023-03-23T06:11:11;14.60;99.90
24645;DHT22;12780;45.502;9.146;2023-03-23T06:13:38;14.60;99.90
24645;DHT22;12780;45.502;9.146;2023-03-23T06:16:04;14.60;99.90
24645;DHT22;12780;45.502;9.146;2023-03-23T06:18:30;14.60;99.90
24645;DHT22;12780;45.502;9.146;2023-03-23T06:20:59;14.80;99.90
24645;DHT22;12780;45.502;9.146;2023-03-23T06:23:25;14.70;99.90
24645;DHT22;12780;45.502;9.146;2023-03-23T06:25:55;14.70;99.90
24645;DHT22;12780;45.502;9.146;2023-03-23T06:28:22;14.70;99.90
24645;DHT22;12780;45.502;9.146;2023-03-23T06:30:48;14.80;99.90
24645;DHT22;12780;45.502;9.146;2023-03-23T06:33:15;14.80;99.90
24645;DHT22;12780;45.502;9.146;2023-03-23T06:35:40;14.80;99.90
24645;DHT22;12780;45.502;9.146;2023-03-23T06:38:06;14.80;99.90
24645;DHT22;12780;45.502;9.146;2023-03-23T06:40:31;14.90;99.90
24645;DHT22;12780;45.502;9.146;2023-03-23T06:42:57;14.90;99.90
24645;DHT22;12780;45.502;9.146;2023-03-23T06:45:24;14.90;99.90
24645;DHT22;12780;45.502;9.146;2023-03-23T06:47:50;15.00;99.90
24645;DHT22;12780;45.502;9.146;2023-03-23T06:50:16;14.90;99.90
24645;DHT22;12780;45.502;9.146;2023-03-23T06:52:46;15.00;99.90
24645;DHT22;12780;45.502;9.146;2023-03-23T06:55:12;15.00;99.90
24645;DHT22;12780;45.502;9.146;2023-03-23T06:57:38;15.00;99.90
24645;DHT22;12780;45.502;9.146;2023-03-23T07:00:04;15.10;99.90
24645;DHT22;12780;45.502;9.146;2023-03-23T07:02:32;15.10;99.90
24645;DHT22;12780;45.502;9.146;2023-03-23T07:04:58;15.10;99.90
24645;DHT22;12780;45.502;9.146;2023-03-23T07:07:24;15.00;99.90
24645;DHT22;12780;45.502;9.146;2023-03-23T07:09:50;15.00;99.90
24645;DHT22;12780;45.502;9.146;2023-03-23T07:12:16;15.00;99.90
24645;DHT22;12780;45.502;9.146;2023-03-23T07:14:41;15.00;99.90
24645;DHT22;12780;45.502;9.146;2023-03-23T07:17:07;15.00;99.90
24645;DHT22;12780;45.502;9.146;2023-03-23T07:19:33;15.10;99.90
24645;DHT22;12780;45.502;9.146;2023-03-23T07:21:59;15.10;99.90
24645;DHT22;12780;45.502;9.146;2023-03-23T07:24:24;15.10;99.90
24645;DHT22;12780;45.502;9.146;2023-03-23T07:26:50;15.10;99.90
24645;DHT22;12780;45.502;9.146;2023-03-23T07:29:16;15.20;99.90
24645;DHT22;12780;45.502;9.146;2023-03-23T07:31:41;15.20;99.90
24645;DHT22;12780;45.502;9.146;2023-03-23T07:34:07;15.20;99.90
24645;DHT22;12780;45.502;9.146;2023-03-23T07:36:33;15.20;99.90
24645;DHT22;12780;45.502;9.146;2023-03-23T07:39:03;15.30;99.90
24645;DHT22;12780;45.502;9.146;2023-03-23T07:41:31;15.30;99.90
24645;DHT22;12780;45.502;9.146;2023-03-23T07:43:57;15.30;99.90
24645;DHT22;12780;45.502;9.146;2023-03-23T07:46:23;15.30;99.90
24645;DHT22;12780;45.502;9.146;2023-03-23T07:48:49;15.40;99.90
24645;DHT22;12780;45.502;9.146;2023-03-23T07:51:15;15.40;99.90
24645;DHT22;12780;45.502;9.146;2023-03-23T07:53:44;15.50;99.90
24645;DHT22;12780;45.502;9.146;2023-03-23T07:56:13;15.50;99.90
24645;DHT22;12780;45.502;9.146;2023-03-23T07:58:41;15.60;99.90
24645;DHT22;12780;45.502;9.146;2023-03-23T08:01:06;15.60;99.90
24645;DHT22;12780;45.502;9.146;2023-03-23T08:03:32;15.60;99.90
24645;DHT22;12780;45.502;9.146;2023-03-23T08:06:01;15.60;99.90
24645;DHT22;12780;45.502;9.146;2023-03-23T08:08:26;15.70;99.90
24645;DHT22;12780;45.502;9.146;2023-03-23T08:10:52;15.70;99.90
24645;DHT22;12780;45.502;9.146;2023-03-23T08:13:18;15.80;99.90
24645;DHT22;12780;45.502;9.146;2023-03-23T08:15:44;15.90;99.90
24645;DHT22;12780;45.502;9.146;2023-03-23T08:18:09;15.90;99.90
24645;DHT22;12780;45.502;9.146;2023-03-23T08:20:35;16.00;99.90
24645;DHT22;12780;45.502;9.146;2023-03-23T08:23:02;15.90;99.90
24645;DHT22;12780;45.502;9.146;2023-03-23T08:25:30;15.80;99.90
24645;DHT22;12780;45.502;9.146;2023-03-23T08:27:58;15.80;99.90
24645;DHT22;12780;45.502;9.146;2023-03-23T08:30:24;15.80;99.90
24645;DHT22;12780;45.502;9.146;2023-03-23T08:32:51;15.90;99.90
24645;DHT22;12780;45.502;9.146;2023-03-23T08:35:18;15.90;99.90
24645;DHT22;12780;45.502;9.146;2023-03-23T08:37:45;15.80;99.90
24645;DHT22;12780;45.502;9.146;2023-03-23T08:40:13;15.80;99.90
24645;DHT22;12780;45.502;9.146;2023-03-23T08:42:41;15.80;99.90
24645;DHT22;12780;45.502;9.146;2023-03-23T08:45:10;15.70;99.90
24645;DHT22;12780;45.502;9.146;2023-03-23T08:47:36;15.70;99.90
24645;DHT22;12780;45.502;9.146;2023-03-23T08:50:04;15.70;99.90
24645;DHT22;12780;45.502;9.146;2023-03-23T08:52:30;15.70;99.90
24645;DHT22;12780;45.502;9.146;2023-03-23T08:54:56;15.70;99.90
24645;DHT22;12780;45.502;9.146;2023-03-23T08:57:23;15.70;99.90
24645;DHT22;12780;45.502;9.146;2023-03-23T08:59:48;15.70;99.90
24645;DHT22;12780;45.502;9.146;2023-03-23T09:02:14;15.80;99.90
24645;DHT22;12780;45.502;9.146;2023-03-23T09:04:40;15.90;99.90
24645;DHT22;12780;45.502;9.146;2023-03-23T09:07:10;16.00;99.90
24645;DHT22;12780;45.502;9.146;2023-03-23T09:09:38;16.00;99.90
24645;DHT22;12780;45.502;9.146;2023-03-23T09:12:05;16.00;99.90
24645;DHT22;12780;45.502;9.146;2023-03-23T09:14:32;16.00;99.90
24645;DHT22;12780;45.502;9.146;2023-03-23T09:16:57;16.00;99.90
24645;DHT22;12780;45.502;9.146;2023-03-23T09:19:23;16.10;99.90
24645;DHT22;12780;45.502;9.146;2023-03-23T09:21:48;16.10;99.90
24645;DHT22;12780;45.502;9.146;2023-03-23T09:24:14;16.20;99.90
24645;DHT22;12780;45.502;9.146;2023-03-23T09:26:40;16.20;99.90
24645;DHT22;12780;45.502;9.146;2023-03-23T09:29:06;16.30;99.90
24645;DHT22;12780;45.502;9.146;2023-03-23T09:31:31;16.20;99.90
24645;DHT22;12780;45.502;9.146;2023-03-23T09:33:58;16.30;99.90
24645;DHT22;12780;45.502;9.146;2023-03-23T09:36:25;16.30;99.90
24645;DHT22;12780;45.502;9.146;2023-03-23T09:38:57;16.40;99.90
24645;DHT22;12780;45.502;9.146;2023-03-23T09:49:32;16.40;99.90
24645;DHT22;12780;45.502;9.146;2023-03-23T09:52:11;16.50;99.90
24645;DHT22;12780;45.502;9.146;2023-03-23T09:54:40;16.50;99.90
24645;DHT22;12780;45.502;9.146;2023-03-23T09:57:38;16.60;99.90
24645;DHT22;12780;45.502;9.146;2023-03-23T10:00:06;16.70;99.90
24645;DHT22;12780;45.502;9.146;2023-03-23T10:03:04;16.70;99.90
24645;DHT22;12780;45.502;9.146;2023-03-23T10:05:36;16.80;99.90
24645;DHT22;12780;45.502;9.146;2023-03-23T10:08:12;16.80;99.90
24645;DHT22;12780;45.502;9.146;2023-03-23T10:11:03;16.90;99.90
24645;DHT22;12780;45.502;9.146;2023-03-23T10:13:38;16.90;99.90
24645;DHT22;12780;45.502;9.146;2023-03-23T10:16:10;17.00;99.90
24645;DHT22;12780;45.502;9.146;2023-03-23T10:18:47;17.00;99.90
24645;DHT22;12780;45.502;9.146;2023-03-23T10:21:18;17.00;99.90
24645;DHT22;12780;45.502;9.146;2023-03-23T10:29:23;16.90;99.90
24645;DHT22;12780;45.502;9.146;2023-03-23T10:31:58;16.90;99.90
24645;DHT22;12780;45.502;9.146;2023-03-23T10:40:15;17.00;99.90
24645;DHT22;12780;45.502;9.146;2023-03-23T10:42:41;17.10;99.90
24645;DHT22;12780;45.502;9.146;2023-03-23T10:45:28;17.10;99.90
24645;DHT22;12780;45.502;9.146;2023-03-23T10:50:50;17.40;99.90
24645;DHT22;12780;45.502;9.146;2023-03-23T10:53:25;17.50;99.90
24645;DHT22;12780;45.502;9.146;2023-03-23T10:55:53;17.70;99.90
24645;DHT22;12780;45.502;9.146;2023-03-23T10:58:32;17.80;99.90
24645;DHT22;12780;45.502;9.146;2023-03-23T11:01:00;17.90;99.90
24645;DHT22;12780;45.502;9.146;2023-03-23T11:06:10;18.10;99.90
24645;DHT22;12780;45.502;9.146;2023-03-23T11:08:46;18.30;99.90
24645;DHT22;12780;45.502;9.146;2023-03-23T11:11:21;18.40;99.90
24645;DHT22;12780;45.502;9.146;2023-03-23T11:14:00;18.40;99.90
24645;DHT22;12780;45.502;9.146;2023-03-23T11:16:32;18.70;99.90
24645;DHT22;12780;45.502;9.146;2023-03-23T11:19:00;18.80;99.90
24645;DHT22;12780;45.502;9.146;2023-03-23T11:21:37;18.80;99.90
24645;DHT22;12780;45.502;9.146;2023-03-23T11:24:05;19.00;99.90
24645;DHT22;12780;45.502;9.146;2023-03-23T11:26:33;19.00;99.90
24645;DHT22;12780;45.502;9.146;2023-03-23T11:29:16;19.10;99.90
24645;DHT22;12780;45.502;9.146;2023-03-23T11:31:46;19.20;99.90
24645;DHT22;12780;45.502;9.146;2023-03-23T11:34:23;19.40;99.90
24645;DHT22;12780;45.502;9.146;2023-03-23T11:37:02;19.50;99.90
24645;DHT22;12780;45.502;9.146;2023-03-23T11:39:31;19.60;99.90
24645;DHT22;12780;45.502;9.146;2023-03-23T11:41:59;19.70;99.90
24645;DHT22;12780;45.502;9.146;2023-03-23T11:44:33;19.70;99.90
24645;DHT22;12780;45.502;9.146;2023-03-23T11:47:20;19.70;99.90
24645;DHT22;12780;45.502;9.146;2023-03-23T11:50:08;19.60;99.90
24645;DHT22;12780;45.502;9.146;2023-03-23T11:55:36;19.50;99.90
24645;DHT22;12780;45.502;9.146;2023-03-23T11:58:10;19.50;99.90
24645;DHT22;12780;45.502;9.146;2023-03-23T12:00:57;19.50;99.90
24645;DHT22;12780;45.502;9.146;2023-03-23T12:03:47;19.60;99.90
24645;DHT22;12780;45.502;9.146;2023-03-23T12:09:29;19.70;99.90
24645;DHT22;12780;45.502;9.146;2023-03-23T12:23:07;19.90;99.90
24645;DHT22;12780;45.502;9.146;2023-03-23T12:28:26;19.80;99.90
24645;DHT22;12780;45.502;9.146;2023-03-23T12:31:15;20.00;99.90
24645;DHT22;12780;45.502;9.146;2023-03-23T12:34:13;20.00;99.90
24645;DHT22;12780;45.502;9.146;2023-03-23T12:39:41;19.90;99.90
24645;DHT22;12780;45.502;9.146;2023-03-23T12:50:01;20.20;99.90
24645;DHT22;12780;45.502;9.146;2023-03-23T12:52:38;20.20;99.90
24645;DHT22;12780;45.502;9.146;2023-03-23T12:55:30;20.20;99.90
24645;DHT22;12780;45.502;9.146;2023-03-23T12:58:05;20.30;99.90
24645;DHT22;12780;45.502;9.146;2023-03-23T13:03:36;20.30;99.90
24645;DHT22;12780;45.502;9.146;2023-03-23T13:06:20;20.20;99.90
24645;DHT22;12780;45.502;9.146;2023-03-23T13:08:58;20.30;99.90
24645;DHT22;12780;45.502;9.146;2023-03-23T13:11:34;20.20;99.90
24645;DHT22;12780;45.502;9.146;2023-03-23T13:14:26;20.10;99.90
24645;DHT22;12780;45.502;9.146;2023-03-23T13:19:55;20.10;99.90
24645;DHT22;12780;45.502;9.146;2023-03-23T13:25:13;20.00;99.90
24645;DHT22;12780;45.502;9.146;2023-03-23T13:27:39;20.10;99.90
24645;DHT22;12780;45.502;9.146;2023-03-23T13:30:05;20.00;99.90
24645;DHT22;12780;45.502;9.146;2023-03-23T13:32:42;20.00;99.90
24645;DHT22;12780;45.502;9.146;2023-03-23T13:35:17;20.00;99.90
24645;DHT22;12780;45.502;9.146;2023-03-23T13:37:48;20.00;99.90
24645;DHT22;12780;45.502;9.146;2023-03-23T13:40:26;20.00;99.90
24645;DHT22;12780;45.502;9.146;2023-03-23T13:42:55;20.00;99.90
24645;DHT22;12780;45.502;9.146;2023-03-23T13:45:35;20.00;99.90
24645;DHT22;12780;45.502;9.146;2023-03-23T13:48:19;20.10;99.90
24645;DHT22;12780;45.502;9.146;2023-03-23T13:50:59;20.10;99.90
24645;DHT22;12780;45.502;9.146;2023-03-23T13:53:51;20.20;99.90
24645;DHT22;12780;45.502;9.146;2023-03-23T13:59:13;20.20;99.90
24645;DHT22;12780;45.502;9.146;2023-03-23T14:01:40;20.30;99.90
24645;DHT22;12780;45.502;9.146;2023-03-23T14:04:17;20.30;99.90
24645;DHT22;12780;45.502;9.146;2023-03-23T14:06:49;20.40;99.90
24645;DHT22;12780;45.502;9.146;2023-03-23T14:09:32;20.30;99.90
24645;DHT22;12780;45.502;9.146;2023-03-23T14:12:01;20.30;99.90
24645;DHT22;12780;45.502;9.146;2023-03-23T14:17:12;20.30;99.90
24645;DHT22;12780;45.502;9.146;2023-03-23T14:19:40;20.30;99.90
24645;DHT22;12780;45.502;9.146;2023-03-23T14:22:18;20.30;99.90
24645;DHT22;12780;45.502;9.146;2023-03-23T14:24:44;20.40;99.90
24645;DHT22;12780;45.502;9.146;2023-03-23T14:27:14;20.40;99.90
24645;DHT22;12780;45.502;9.146;2023-03-23T14:29:41;20.40;99.90
24645;DHT22;12780;45.502;9.146;2023-03-23T14:32:10;20.40;99.90
24645;DHT22;12780;45.502;9.146;2023-03-23T14:34:37;20.50;99.90
24645;DHT22;12780;45.502;9.146;2023-03-23T14:37:03;20.50;99.90
24645;DHT22;12780;45.502;9.146;2023-03-23T14:39:33;20.50;99.90
24645;DHT22;12780;45.502;9.146;2023-03-23T14:42:06;20.60;99.90
24645;DHT22;12780;45.502;9.146;2023-03-23T14:44:36;20.50;99.90
24645;DHT22;12780;45.502;9.146;2023-03-23T14:47:05;20.60;99.90
24645;DHT22;12780;45.502;9.146;2023-03-23T14:49:37;20.60;99.90
24645;DHT22;12780;45.502;9.146;2023-03-23T14:52:14;20.60;99.90
24645;DHT22;12780;45.502;9.146;2023-03-23T14:54:41;20.60;99.90
24645;DHT22;12780;45.502;9.146;2023-03-23T14:57:28;20.60;99.90
24645;DHT22;12780;45.502;9.146;2023-03-23T14:59:55;20.60;99.90
24645;DHT22;12780;45.502;9.146;2023-03-23T15:02:31;20.50;99.90
24645;DHT22;12780;45.502;9.146;2023-03-23T15:07:43;20.60;99.90
24645;DHT22;12780;45.502;9.146;2023-03-23T15:10:15;20.60;99.90
24645;DHT22;12780;45.502;9.146;2023-03-23T15:12:44;20.70;99.90
24645;DHT22;12780;45.502;9.146;2023-03-23T15:15:31;20.70;99.90
24645;DHT22;12780;45.502;9.146;2023-03-23T15:17:57;20.60;99.90
24645;DHT22;12780;45.502;9.146;2023-03-23T15:20:30;20.60;99.90
24645;DHT22;12780;45.502;9.146;2023-03-23T15:23:04;20.60;99.90
24645;DHT22;12780;45.502;9.146;2023-03-23T15:25:32;20.70;99.90
24645;DHT22;12780;45.502;9.146;2023-03-23T15:28:16;20.70;99.90
24645;DHT22;12780;45.502;9.146;2023-03-23T15:30:50;20.60;99.90
24645;DHT22;12780;45.502;9.146;2023-03-23T15:33:17;20.60;99.90
24645;DHT22;12780;45.502;9.146;2023-03-23T15:35:48;20.60;99.90
24645;DHT22;12780;45.502;9.146;2023-03-23T15:38:25;20.60;99.90
24645;DHT22;12780;45.502;9.146;2023-03-23T15:40:56;20.50;99.90
24645;DHT22;12780;45.502;9.146;2023-03-23T15:43:25;20.50;99.90
24645;DHT22;12780;45.502;9.146;2023-03-23T15:45:59;20.50;99.90
24645;DHT22;12780;45.502;9.146;2023-03-23T15:51:12;20.50;99.90
24645;DHT22;12780;45.502;9.146;2023-03-23T15:53:39;20.50;99.90
24645;DHT22;12780;45.502;9.146;2023-03-23T15:56:07;20.50;99.90
24645;DHT22;12780;45.502;9.146;2023-03-23T15:58:34;20.40;99.90
24645;DHT22;12780;45.502;9.146;2023-03-23T16:01:03;20.40;99.90
24645;DHT22;12780;45.502;9.146;2023-03-23T16:06:11;20.40;99.90
24645;DHT22;12780;45.502;9.146;2023-03-23T16:08:37;20.40;99.90
24645;DHT22;12780;45.502;9.146;2023-03-23T16:11:06;20.40;99.90
24645;DHT22;12780;45.502;9.146;2023-03-23T16:13:32;20.30;99.90
24645;DHT22;12780;45.502;9.146;2023-03-23T16:15:57;20.30;99.90
24645;DHT22;12780;45.502;9.146;2023-03-23T16:18:23;20.40;99.90
24645;DHT22;12780;45.502;9.146;2023-03-23T16:20:49;20.30;99.90
24645;DHT22;12780;45.502;9.146;2023-03-23T16:23:15;20.20;99.90
24645;DHT22;12780;45.502;9.146;2023-03-23T16:25:41;20.20;99.90
24645;DHT22;12780;45.502;9.146;2023-03-23T16:28:11;20.10;99.90
24645;DHT22;12780;45.502;9.146;2023-03-23T16:30:37;20.10;99.90
24645;DHT22;12780;45.502;9.146;2023-03-23T16:33:03;20.00;99.90
24645;DHT22;12780;45.502;9.146;2023-03-23T16:35:28;20.00;99.90
24645;DHT22;12780;45.502;9.146;2023-03-23T16:37:55;20.00;99.90
24645;DHT22;12780;45.502;9.146;2023-03-23T16:40:22;19.70;99.90
24645;DHT22;12780;45.502;9.146;2023-03-23T16:42:48;19.90;99.90
24645;DHT22;12780;45.502;9.146;2023-03-23T16:45:15;19.80;99.90
24645;DHT22;12780;45.502;9.146;2023-03-23T16:47:41;19.80;99.90
24645;DHT22;12780;45.502;9.146;2023-03-23T16:50:09;19.70;99.90
24645;DHT22;12780;45.502;9.146;2023-03-23T16:52:40;19.70;99.90
24645;DHT22;12780;45.502;9.146;2023-03-23T16:55:07;19.70;99.90
24645;DHT22;12780;45.502;9.146;2023-03-23T16:57:33;19.60;99.90
24645;DHT22;12780;45.502;9.146;2023-03-23T17:00:07;19.60;99.90
24645;DHT22;12780;45.502;9.146;2023-03-23T17:02:33;19.50;99.90
24645;DHT22;12780;45.502;9.146;2023-03-23T17:04:59;19.40;99.90
24645;DHT22;12780;45.502;9.146;2023-03-23T17:07:25;19.40;99.90
24645;DHT22;12780;45.502;9.146;2023-03-23T17:09:51;19.40;99.90
24645;DHT22;12780;45.502;9.146;2023-03-23T17:12:16;19.40;99.90
24645;DHT22;12780;45.502;9.146;2023-03-23T17:14:42;19.40;99.90
24645;DHT22;12780;45.502;9.146;2023-03-23T17:17:08;19.40;99.90
24645;DHT22;12780;45.502;9.146;2023-03-23T17:19:34;19.30;99.90
24645;DHT22;12780;45.502;9.146;2023-03-23T17:22:00;19.30;99.90
24645;DHT22;12780;45.502;9.146;2023-03-23T17:24:26;19.20;99.90